Freddy Mejia

Recruteur - Atletico Nacional
13 Nov 2027
Samedi
Processus

Personnalité

Adaptabilité (5) Ambition (8) Controverse (15) Loyauté (17) Pression (17) Professionnalisme (11) Sportivité (10) Tempérament (8)

Profil

Style d'entraînement Démocratique
Diplôme Continental Pro
Détermination 14
Gestion des joueurs 8
Motivation 13
Discipline 11
Satisfaction professionnelle
100%
Fatigue
0%
Rôle Recruteur
Salaire 64.6K p/s
Contrat 14.03.2030

Performance

Comportement Bon
Efficacité de l'entraînement
50%
Développement des joueurs
35%
Prévention des blessures
50%
Mise en place tactique
40%

Événements récents

A évalué un joueur maintenant
A participé à une réunion de recrutement maintenant
A recommandé une cible de transfert maintenant
A participé à une réunion de recrutement 7j
A recommandé une cible de transfert 7j
A évalué un joueur 7j
A évalué un joueur 7j
A évalué un joueur 7j

Suivi en cours

119
Joueur Club Statut Capacité Confiance Observé Dernière observation Dernier vote
Alex Meret Napoli Actif 151 / 166 40% 2 11.11.2027 -
Gabriel Brazão Santos Actif 136 / 131 40% 1 11.11.2027 -
Iván Villar Celta Actif 130 / 130 40% 1 11.11.2027 -
Anthony Racioppi Grasshopper Actif 137 / 122 40% 2 10.11.2027 -
Lautaro Morales Lanús Actif 133 / 138 40% 1 10.11.2027 -
Jamie Cumming Birmingham Actif 132 / 124 40% 1 10.11.2027 -
James Trafford Leeds United Actif 149 / 157 40% 2 08.11.2027 -
Marco Carnesecchi Torino Actif 159 / 171 40% 1 08.11.2027 -
Daniel Iversen Preston Actif 141 / 124 40% 2 06.11.2027 -
Kostantis Tzolakis Hull City Actif 158 / 157 40% 1 06.11.2027 -
Senne Lammens Manchester United Actif 153 / 147 40% 1 03.11.2027 -
Hugo Souza Corinthians Actif 137 / 147 40% 1 03.11.2027 -
Devis Vásquez AS Roma Actif 130 / 129 40% 1 02.11.2027 -
Ander Astralaga Villarreal Actif 138 / 149 40% 1 02.11.2027 -
Andriy Lunin Real Madrid Actif 154 / 173 40% 1 01.11.2027 -
Josh Keeley Luton Town Actif 133 / 128 40% 1 01.11.2027 -
Jhon Velásquez Fortaleza CEIF Actif 109 / 106 79% 1 12.07.2027 Approuver
Donyell Malen AS Roma Actif 158 / 157 40% 1 21.06.2027 -
Santiago Castro AS Roma Actif 149 / 146 40% 1 21.06.2027 -
Mateo Pellegrino Fiorentina Actif 140 / 144 40% 1 21.06.2027 -
Diego Enríquez Sporting Cristal Actif 132 / 130 40% 1 01.06.2027 -
Carl Rushworth Coventry City Actif 137 / 140 40% 1 01.06.2027 -
Lorenzo Montipò Venezia Actif 142 / 141 40% 1 01.06.2027 -
Finn Azaz Southampton Actif 139 / 135 40% 7 29.05.2027 -
Kasey McAteer Ipswich Town Actif 137 / 123 40% 2 29.05.2027 -
Ali Ahmed Norwich City Actif 135 / 116 40% 1 29.05.2027 -
Loum Tchaouna Coventry City Actif 134 / 133 40% 2 24.05.2027 -
Isaac Price West Bromwich Albion Actif 124 / 140 40% 1 24.05.2027 -
Welington Southampton Actif 139 / 119 40% 2 21.05.2027 -
Helinho Toluca Actif 140 / 127 40% 4 21.05.2027 -
Jovon Makama Norwich City Actif 131 / 118 40% 1 21.05.2027 -
Zeidane Inoussa Swansea City Actif 129 / 121 40% 2 20.05.2027 -
Luís Henrique Inter Actif 151 / 130 40% 1 19.05.2027 -
Dango Ouattara Brentford Actif 139 / 144 40% 5 15.05.2027 -
Tyrese Campbell Sheffield United Actif 135 / 135 40% 1 15.05.2027 -
Charles De Ketelaere Atalanta Actif 151 / 143 40% 1 14.05.2027 -
Emile Smith Rowe Fulham Actif 158 / 160 40% 2 11.05.2027 -
Liam Delap Nottingham Forest Actif 138 / 154 40% 1 11.05.2027 -
Lamine Cissé Peterborough United Actif 126 / 124 40% 4 07.05.2027 -
Tomáš Rigo Stoke City Actif 133 / 139 40% 1 07.05.2027 -
Matt O'Riley Brighton Actif 147 / 145 40% 2 02.05.2027 -
Koki Saito Queens Park Rangers Actif 136 / 137 40% 2 27.04.2027 -
Enzo Le Fée Sunderland Actif 144 / 140 40% 1 24.04.2027 -
Brennan Johnson Everton Actif 142 / 150 40% 2 23.04.2027 -
Rumarn Burrell Queens Park Rangers Actif 130 / 128 40% 2 13.04.2027 -
Tom Fellows Southampton Actif 133 / 130 40% 1 12.04.2027 -
Julio Enciso Ipswich Town Actif 143 / 152 40% 1 11.04.2027 -
Nicolas Jackson Aston Villa Actif 151 / 145 40% 1 10.04.2027 -
Yankuba Minteh Brighton Actif 155 / 158 40% 1 10.04.2027 -
Mikkel Damsgaard Brentford Actif 140 / 146 40% 2 09.04.2027 -
Óscar Mingueza Crystal Palace Actif 146 / 161 40% 2 09.04.2027 -
Ronald Swansea City Actif 137 / 130 40% 1 08.04.2027 -
Gonzalo Fulham Actif 144 / 160 40% 1 08.04.2027 -
Tshepang Moremi Orlando Pirates Actif 115 / 127 40% 2 04.04.2027 -
Jack McGlynn Stoke City Actif 122 / 130 40% 1 04.04.2027 -
James Garner Everton Actif 158 / 139 40% 1 30.03.2027 -
Jack Rudoni Coventry City Actif 142 / 139 40% 1 30.03.2027 -
Amadou Onana Newcastle United Actif 149 / 168 40% 1 28.03.2027 -
Ramón Terrats Getafe Actif 147 / 140 40% 1 28.03.2027 -
Jeon Jin-Woo Sheffield Wednesday Actif 132 / 133 40% 1 26.03.2027 -
Isaiah Jones Luton Town Actif 117 / 135 40% 1 25.03.2027 -
Rafael Leão Galatasaray Actif 154 / 174 40% 1 18.03.2027 -
Yeremy Pino Crystal Palace Actif 147 / 163 40% 1 18.03.2027 -
Damián Fernández Defensa y Justicia Actif 121 / 121 40% 3 30.11.2026 -
Shea Charles Southampton Actif 123 / 125 40% 2 30.11.2026 -
Tomás Escalante Plaza Colonia Actif 121 / 116 40% 1 30.11.2026 -
Christian Krasnodar Actif 127 / 128 40% 2 29.11.2026 -
Sergej Milinković-Savić Al-Hilal Actif 161 / 159 40% 1 29.11.2026 -
Agustín Cardozo Lanús Actif 131 / 122 40% 1 29.11.2026 -
Franco Ibarra Rosario Central Actif 132 / 137 40% 3 26.11.2026 -
César Pérez Defensa y Justicia Actif 121 / 116 40% 1 26.11.2026 -
Juan Mosquera Portland Timbers Actif 118 / 117 40% 4 22.11.2026 -
Gonzalo Pérez Lanús Actif 121 / 118 40% 2 22.11.2026 -
Franco Díaz Temperley Actif 124 / 123 40% 2 22.11.2026 -
Marcos López San Martín Actif 132 / 124 40% 2 20.11.2026 -
César Ibáñez Huracán Actif 121 / 128 40% 2 19.11.2026 -
Mateo Mendoza Godoy Cruz Actif 118 / 116 40% 1 19.11.2026 -
Rodrigo Herrera Newell's Old Boys Actif 120 / 118 40% 1 19.11.2026 -
Tyrell Malacia Derby County Actif 133 / 138 40% 1 17.11.2026 -
Joaquín García Vélez Actif 125 / 132 40% 4 16.11.2026 -
Williams Alarcón Boca Juniors Actif 130 / 132 40% 1 16.11.2026 -
Musab Al-Juwayr Al-Qadisiyah Actif 124 / 139 40% 1 15.11.2026 -
Aníbal Moreno River Plate Actif 128 / 123 40% 2 13.11.2026 -
Davinson Sánchez Galatasaray Actif 156 / 164 40% 1 13.11.2026 -
Lucas Martínez Quarta River Plate Actif 132 / 133 40% 1 13.11.2026 -
Marco Di Cesare Racing Club Actif 127 / 135 40% 1 11.11.2026 -
Yílmar Velásquez Santa Fe Actif 117 / 129 40% 1 09.11.2026 -
Augusto Schott Talleres Actif 117 / 124 40% 1 09.11.2026 -
Juan Carlos Portillo River Plate Actif 126 / 135 40% 2 06.11.2026 -
Jeisson Quinones Yokohama F. Marinos Actif 130 / 136 40% 1 06.11.2026 -
Federico Navarro Rosario Central Actif 127 / 128 40% 1 06.11.2026 -
Ayrton Costa Boca Juniors Actif 132 / 132 40% 2 04.11.2026 -
Lautaro Di Lollo Boca Juniors Actif 125 / 136 40% 1 04.11.2026 -
Hidemasa Morita Hull City Actif 143 / 135 40% 1 04.11.2026 -
Diego Martinez La Equidad Actif 132 / 124 40% 1 02.11.2026 -
Gabriel Neves Estudiantes Actif 126 / 119 40% 1 29.10.2026 -
Kenny Tete Fulham Actif 146 / 152 40% 1 29.10.2026 -
Lucas Carrizo Newell's Old Boys Actif 123 / 119 40% 1 29.10.2026 -
Sergio Barreto Pachuca Actif 126 / 129 40% 3 26.10.2026 -
Gastón Benedetti Estudiantes Actif 128 / 129 40% 2 26.10.2026 -
Rodrigo González Aldosivi Actif 118 / 119 40% 1 26.10.2026 -
Leandro Lozano Boca Juniors Actif 126 / 132 40% 1 21.10.2026 -
Erick Aguirre Monterrey Actif 123 / 120 40% 1 21.10.2026 -
Jherson Mosquera Newell's Old Boys Actif 122 / 124 40% 1 19.10.2026 -
Jesús Orozco Chiquete Cruz Azul Actif 130 / 133 40% 2 16.10.2026 -
Alexis Gutiérrez Club America Actif 120 / 117 40% 1 16.10.2026 -
Alexis Steimbach Gimnasia La Plata Actif 122 / 122 40% 2 15.10.2026 -
Joaquim Tigres Actif 133 / 134 40% 1 15.10.2026 -
Sheyko Studer Independiente Rivadavia Actif 127 / 130 40% 1 15.10.2026 -
Santiago Núñez Estudiantes Actif 127 / 126 40% 1 12.10.2026 -
Gerardo Arteaga Monterrey Actif 130 / 122 40% 2 06.10.2026 -
Ignacio Vázquez Platense Actif 128 / 121 40% 1 06.10.2026 -
Jorge Sánchez Atlas Actif 125 / 130 40% 1 05.10.2026 -
Evander FC Cincinnati Actif 140 / 137 40% 1 07.09.2026 -
Juan Diego Mendoza Real Santander Actif 80 / 85 30% 1 / 1m 12.08.2026 -
Omar El Hilali Espanyol Actif 151 / 158 40% 2 02.08.2026 -
Jhohan Romaña Leon Actif 123 / 120 40% 1 02.08.2026 -
Beñat Turrientes Real Sociedad Actif 145 / 150 40% 1 02.08.2026 -
Jesús Vallejo Albacete Actif 127 / 123 40% 1 01.08.2026 -